Time;durP1;ratioP1;P1;durP2;ratioP2;P2;SDS_P1;SDS_P2;PMS_P1;PMS_P2;Temp;Humidity;BMP_temperature;BMP_pressure;BME280_temperature;BME280_humidity;BME280_pressure;Samples;Min_cycle;Max_cycle;Signal;HPM_P1;HPM_P2
2024/03/20 00:01:38;;;;;;;15.00;8.98;;;;;;;;;;5130964;28;20085;-58
2024/03/20 00:04:04;;;;;;;17.03;8.83;;;;;;;;;;5133476;28;20057;-59
2024/03/20 00:06:32;;;;;;;21.20;8.55;;;;;;;;;;5123699;28;20031;-59
2024/03/20 00:08:58;;;;;;;17.30;8.17;;;;;;;;;;5135309;28;20028;-60
2024/03/20 00:11:24;;;;;;;16.55;8.75;;;;;;;;;;5126653;28;20248;-60
2024/03/20 00:13:50;;;;;;;17.08;7.80;;;;;;;;;;5132147;28;20034;-59
2024/03/20 00:16:15;;;;;;;18.70;9.03;;;;;;;;;;5130626;28;20035;-59
2024/03/20 00:18:41;;;;;;;14.60;7.72;;;;;;;;;;5135747;28;20031;-59
2024/03/20 00:21:07;;;;;;;20.23;9.45;;;;;;;;;;5132699;28;20028;-58
2024/03/20 00:23:32;;;;;;;20.30;8.87;;;;;;;;;;5135457;28;20044;-59
2024/03/20 00:26:00;;;;;;;20.07;8.97;;;;;;;;;;5117018;28;20050;-59
2024/03/20 00:28:25;;;;;;;16.20;7.63;;;;;;;;;;5133869;28;20028;-59
2024/03/20 00:30:51;;;;;;;14.07;8.48;;;;;;;;;;5133588;28;20282;-58
2024/03/20 00:33:16;;;;;;;18.17;8.20;;;;;;;;;;5132457;28;20056;-59
2024/03/20 00:35:42;;;;;;;19.17;8.90;;;;;;;;;;5130367;28;20953;-59
2024/03/20 00:38:07;;;;;;;19.20;8.97;;;;;;;;;;5126615;28;20047;-57
2024/03/20 00:40:32;;;;;;;15.40;8.25;;;;;;;;;;5116818;28;20078;-60
2024/03/20 00:42:58;;;;;;;18.80;8.17;;;;;;;;;;5132980;28;20043;-59
2024/03/20 00:45:23;;;;;;;18.10;8.77;;;;;;;;;;5132062;28;20020;-59
2024/03/20 00:47:48;;;;;;;23.47;9.03;;;;;;;;;;5135534;28;20047;-58
2024/03/20 00:50:14;;;;;;;20.02;8.82;;;;;;;;;;5121566;28;20031;-59
2024/03/20 00:52:39;;;;;;;25.73;9.18;;;;;;;;;;5135072;28;20099;-60
2024/03/20 00:55:05;;;;;;;16.30;8.82;;;;;;;;;;5125021;28;20028;-58
2024/03/20 00:57:30;;;;;;;15.15;8.60;;;;;;;;;;5134771;28;20039;-58
2024/03/20 00:59:56;;;;;;;21.30;9.27;;;;;;;;;;5135038;28;20038;-59
2024/03/20 01:02:21;;;;;;;23.87;9.00;;;;;;;;;;5114782;28;20268;-59
2024/03/20 01:04:46;;;;;;;20.77;10.37;;;;;;;;;;5128760;28;20288;-58
2024/03/20 01:07:12;;;;;;;18.85;8.82;;;;;;;;;;5134919;28;20034;-59
2024/03/20 01:09:38;;;;;;;20.38;9.65;;;;;;;;;;5134066;28;20043;-59
2024/03/20 01:12:03;;;;;;;18.77;9.23;;;;;;;;;;5135127;28;20019;-60
2024/03/20 01:14:29;;;;;;;21.27;9.85;;;;;;;;;;5131277;28;20036;-58
2024/03/20 01:16:54;;;;;;;17.35;9.07;;;;;;;;;;5130568;28;20060;-61
2024/03/20 01:19:20;;;;;;;18.08;8.77;;;;;;;;;;5134808;28;20036;-60
2024/03/20 01:21:46;;;;;;;21.15;10.07;;;;;;;;;;5123654;28;20028;-60
2024/03/20 01:24:12;;;;;;;20.38;9.80;;;;;;;;;;5134696;28;20040;-59
2024/03/20 01:26:37;;;;;;;15.27;9.77;;;;;;;;;;5134950;28;20027;-57
2024/03/20 01:29:03;;;;;;;22.17;10.73;;;;;;;;;;5139068;28;20256;-58
2024/03/20 01:31:28;;;;;;;23.30;9.77;;;;;;;;;;5130571;28;20028;-58
2024/03/20 01:33:53;;;;;;;21.67;9.37;;;;;;;;;;5135695;28;20047;-59
2024/03/20 01:36:19;;;;;;;20.52;9.63;;;;;;;;;;5132302;28;20035;-59
2024/03/20 01:38:45;;;;;;;24.87;10.77;;;;;;;;;;5133516;28;20091;-59
2024/03/20 01:41:10;;;;;;;18.15;9.40;;;;;;;;;;5133638;28;20067;-59
2024/03/20 01:43:37;;;;;;;20.50;9.27;;;;;;;;;;5133682;28;20036;-59
2024/03/20 01:46:09;;;;;;;21.50;9.35;;;;;;;;;;5132556;28;20036;-58
2024/03/20 01:48:35;;;;;;;19.40;9.93;;;;;;;;;;5129734;28;20037;-59
2024/03/20 01:51:00;;;;;;;18.53;9.43;;;;;;;;;;5122114;28;20264;-59
2024/03/20 01:53:26;;;;;;;20.63;9.43;;;;;;;;;;5135678;28;20340;-58
2024/03/20 01:55:51;;;;;;;27.65;9.98;;;;;;;;;;5131208;28;20267;-59
2024/03/20 01:58:17;;;;;;;25.58;9.57;;;;;;;;;;5133165;28;20031;-59
2024/03/20 02:00:45;;;;;;;26.10;10.73;;;;;;;;;;5138198;28;20032;-57
2024/03/20 02:03:16;;;;;;;20.47;10.30;;;;;;;;;;5125520;28;20032;-59
2024/03/20 02:05:43;;;;;;;28.97;10.20;;;;;;;;;;5123055;28;20316;-59
2024/03/20 02:08:09;;;;;;;20.77;9.80;;;;;;;;;;5137365;28;20320;-59
2024/03/20 02:10:34;;;;;;;18.47;9.50;;;;;;;;;;5138058;28;20260;-59
2024/03/20 02:13:04;;;;;;;19.25;9.07;;;;;;;;;;5138055;28;20279;-60
2024/03/20 02:15:30;;;;;;;27.20;9.50;;;;;;;;;;5123306;28;20063;-59
2024/03/20 02:17:57;;;;;;;18.30;9.02;;;;;;;;;;5134661;28;20265;-61
2024/03/20 02:20:22;;;;;;;27.42;9.82;;;;;;;;;;5133955;28;20032;-59
2024/03/20 02:22:47;;;;;;;20.47;9.60;;;;;;;;;;5134760;28;20028;-60
2024/03/20 02:25:13;;;;;;;20.40;9.23;;;;;;;;;;5135766;28;20063;-60
2024/03/20 02:27:39;;;;;;;23.70;10.60;;;;;;;;;;5126589;28;20024;-59
2024/03/20 02:30:09;;;;;;;21.88;10.52;;;;;;;;;;5136686;28;20304;-57
2024/03/20 02:32:35;;;;;;;24.57;10.67;;;;;;;;;;5135133;28;20053;-58
2024/03/20 02:35:01;;;;;;;20.58;10.57;;;;;;;;;;5137612;28;20268;-60
2024/03/20 02:37:26;;;;;;;21.42;10.00;;;;;;;;;;5131380;28;20046;-59
2024/03/20 02:39:52;;;;;;;20.80;9.82;;;;;;;;;;5137712;28;20036;-59
2024/03/20 02:42:17;;;;;;;21.92;11.52;;;;;;;;;;5135868;28;20056;-59
2024/03/20 02:44:43;;;;;;;24.17;11.27;;;;;;;;;;5131437;28;20031;-60
2024/03/20 02:47:09;;;;;;;21.92;10.40;;;;;;;;;;5128865;28;20019;-60
2024/03/20 02:49:35;;;;;;;22.80;9.60;;;;;;;;;;5137524;28;20035;-58
2024/03/20 02:52:00;;;;;;;27.97;10.60;;;;;;;;;;5135376;28;20030;-60
2024/03/20 02:54:26;;;;;;;20.73;10.17;;;;;;;;;;5127366;28;20272;-60
2024/03/20 02:56:51;;;;;;;20.70;9.23;;;;;;;;;;5134928;28;20271;-60
2024/03/20 02:59:17;;;;;;;23.23;9.93;;;;;;;;;;5137335;28;20272;-60
2024/03/20 03:01:42;;;;;;;23.13;10.07;;;;;;;;;;5119239;28;20072;-59
2024/03/20 03:04:08;;;;;;;20.05;9.98;;;;;;;;;;5136878;28;20057;-59
2024/03/20 03:06:33;;;;;;;22.83;10.60;;;;;;;;;;5123892;28;20032;-57
2024/03/20 03:08:59;;;;;;;25.05;10.80;;;;;;;;;;5137174;28;20012;-60
2024/03/20 03:11:24;;;;;;;24.85;10.95;;;;;;;;;;5134473;28;20051;-58
2024/03/20 03:13:50;;;;;;;32.03;12.93;;;;;;;;;;5126419;28;20034;-60
2024/03/20 03:16:15;;;;;;;26.70;11.70;;;;;;;;;;5125047;28;20272;-59
2024/03/20 03:18:41;;;;;;;25.38;11.80;;;;;;;;;;5136584;28;20043;-59
2024/03/20 03:21:10;;;;;;;30.55;11.73;;;;;;;;;;5132409;28;20047;-58
2024/03/20 03:23:36;;;;;;;33.53;10.87;;;;;;;;;;5136841;28;20046;-60
2024/03/20 03:26:03;;;;;;;22.92;11.98;;;;;;;;;;5124133;28;20252;-58
2024/03/20 03:28:28;;;;;;;22.73;11.50;;;;;;;;;;5126802;28;20032;-60
2024/03/20 03:30:53;;;;;;;27.77;10.87;;;;;;;;;;5131947;28;20032;-60
2024/03/20 03:33:19;;;;;;;22.52;11.95;;;;;;;;;;5136854;28;20039;-58
2024/03/20 03:35:44;;;;;;;22.88;11.77;;;;;;;;;;5130555;28;20036;-59
2024/03/20 03:38:10;;;;;;;24.17;11.32;;;;;;;;;;5136289;28;20043;-61
2024/03/20 03:40:35;;;;;;;27.38;11.43;;;;;;;;;;5136069;28;20053;-58
2024/03/20 03:43:01;;;;;;;24.25;10.52;;;;;;;;;;5136465;28;20043;-59
2024/03/20 03:45:26;;;;;;;27.00;11.77;;;;;;;;;;5128455;28;20039;-59
2024/03/20 03:47:52;;;;;;;23.80;11.80;;;;;;;;;;5125255;28;20028;-58
2024/03/20 03:50:18;;;;;;;31.08;11.32;;;;;;;;;;5131831;28;20061;-59
2024/03/20 03:52:43;;;;;;;20.07;11.13;;;;;;;;;;5109212;28;20079;-57
2024/03/20 03:55:09;;;;;;;26.48;11.20;;;;;;;;;;5136056;28;20102;-59
2024/03/20 03:57:34;;;;;;;22.10;11.47;;;;;;;;;;5135774;28;20101;-60
2024/03/20 04:00:00;;;;;;;23.03;10.77;;;;;;;;;;5136158;28;20320;-58
2024/03/20 04:02:27;;;;;;;25.03;12.67;;;;;;;;;;5125944;28;20271;-58
2024/03/20 04:04:53;;;;;;;23.40;12.63;;;;;;;;;;5132528;28;20288;-57
2024/03/20 04:07:18;;;;;;;26.58;11.70;;;;;;;;;;5122222;28;20272;-60
2024/03/20 04:09:44;;;;;;;26.10;11.63;;;;;;;;;;5135672;28;20046;-59
2024/03/20 04:12:09;;;;;;;24.75;11.90;;;;;;;;;;5128813;28;20036;-57
2024/03/20 04:14:35;;;;;;;20.07;11.37;;;;;;;;;;5135865;28;20035;-58
2024/03/20 04:17:00;;;;;;;24.80;11.27;;;;;;;;;;5132536;28;20276;-59
2024/03/20 04:19:26;;;;;;;28.37;12.20;;;;;;;;;;5127815;28;20260;-59
2024/03/20 04:21:55;;;;;;;26.47;12.00;;;;;;;;;;5131721;28;20325;-59
2024/03/20 04:24:21;;;;;;;25.03;12.57;;;;;;;;;;5123566;28;20280;-58
2024/03/20 04:26:47;;;;;;;26.40;11.88;;;;;;;;;;5128548;28;20335;-59
2024/03/20 04:29:12;;;;;;;27.25;11.55;;;;;;;;;;5127923;28;20028;-59
2024/03/20 04:31:38;;;;;;;27.63;12.00;;;;;;;;;;5118028;28;20028;-59
2024/03/20 04:34:03;;;;;;;24.73;11.63;;;;;;;;;;5134915;28;20062;-59
2024/03/20 04:36:29;;;;;;;22.15;11.55;;;;;;;;;;5129575;28;20042;-60
2024/03/20 04:38:54;;;;;;;28.37;13.23;;;;;;;;;;5117799;28;20048;-59
2024/03/20 04:41:22;;;;;;;30.50;13.57;;;;;;;;;;5135491;28;20027;-60
2024/03/20 04:43:47;;;;;;;27.10;13.03;;;;;;;;;;5125548;28;20495;-58
2024/03/20 04:46:13;;;;;;;26.13;13.15;;;;;;;;;;5133838;28;20292;-59
2024/03/20 04:48:38;;;;;;;23.73;13.07;;;;;;;;;;5133173;28;20058;-60
2024/03/20 04:51:04;;;;;;;22.67;12.17;;;;;;;;;;5135253;28;20282;-59
2024/03/20 04:53:29;;;;;;;26.33;13.18;;;;;;;;;;5129970;28;20057;-58
2024/03/20 04:55:55;;;;;;;22.63;11.52;;;;;;;;;;5131849;28;20024;-58
2024/03/20 04:58:20;;;;;;;23.30;12.07;;;;;;;;;;5129705;28;20031;-59
2024/03/20 05:00:46;;;;;;;24.38;12.55;;;;;;;;;;5137045;28;20028;-59
2024/03/20 05:03:11;;;;;;;23.65;12.35;;;;;;;;;;5134265;28;20039;-59
2024/03/20 05:05:38;;;;;;;20.90;11.80;;;;;;;;;;5138984;28;20078;-60
2024/03/20 05:08:03;;;;;;;30.75;13.63;;;;;;;;;;5132613;28;20053;-57
2024/03/20 05:10:29;;;;;;;24.10;12.27;;;;;;;;;;5139534;28;20055;-60
2024/03/20 05:12:54;;;;;;;28.00;12.80;;;;;;;;;;5121431;28;20260;-58
2024/03/20 05:15:20;;;;;;;22.75;11.63;;;;;;;;;;5136516;28;20485;-58
2024/03/20 05:17:45;;;;;;;26.67;12.25;;;;;;;;;;5097680;28;20028;-59
2024/03/20 05:20:11;;;;;;;27.70;13.77;;;;;;;;;;5139237;28;20038;-59
2024/03/20 05:22:36;;;;;;;23.43;12.70;;;;;;;;;;5128288;28;20058;-59
2024/03/20 05:25:02;;;;;;;22.43;12.73;;;;;;;;;;5128992;28;20313;-60
2024/03/20 05:27:28;;;;;;;25.27;12.20;;;;;;;;;;5120266;28;20252;-59
2024/03/20 05:29:54;;;;;;;24.90;12.93;;;;;;;;;;5139239;28;20027;-62
2024/03/20 05:32:20;;;;;;;24.30;13.13;;;;;;;;;;5131253;28;20032;-59
2024/03/20 05:34:45;;;;;;;20.55;11.10;;;;;;;;;;5131999;28;20031;-59
2024/03/20 05:37:11;;;;;;;28.90;12.35;;;;;;;;;;5126091;28;20078;-60
2024/03/20 05:39:36;;;;;;;26.13;13.40;;;;;;;;;;5138661;28;20043;-59
2024/03/20 05:42:02;;;;;;;24.67;12.77;;;;;;;;;;5116497;28;20053;-58
2024/03/20 05:44:27;;;;;;;28.95;13.20;;;;;;;;;;5138653;28;20036;-59
2024/03/20 05:46:53;;;;;;;27.57;12.83;;;;;;;;;;5125622;28;20024;-61
2024/03/20 05:49:19;;;;;;;32.15;13.07;;;;;;;;;;5130722;28;20032;-60
2024/03/20 05:51:46;;;;;;;24.45;12.63;;;;;;;;;;5136867;28;20038;-60
2024/03/20 05:54:11;;;;;;;28.73;12.00;;;;;;;;;;5137680;28;20054;-59
2024/03/20 05:56:37;;;;;;;32.67;14.27;;;;;;;;;;5138183;28;20356;-59
2024/03/20 05:59:02;;;;;;;24.63;13.13;;;;;;;;;;5134457;28;20268;-60
2024/03/20 06:01:28;;;;;;;32.63;13.33;;;;;;;;;;5138195;28;20275;-58
2024/03/20 06:03:53;;;;;;;32.10;13.43;;;;;;;;;;5121403;28;20299;-57
2024/03/20 06:06:19;;;;;;;23.00;13.00;;;;;;;;;;5133619;28;20024;-59
2024/03/20 06:08:46;;;;;;;24.80;13.87;;;;;;;;;;5136963;28;20100;-60
2024/03/20 06:11:12;;;;;;;29.80;14.23;;;;;;;;;;5136200;28;20271;-59
2024/03/20 06:13:38;;;;;;;23.20;13.90;;;;;;;;;;5131360;28;20253;-59
2024/03/20 06:16:04;;;;;;;36.03;13.63;;;;;;;;;;5133243;28;20048;-60
2024/03/20 06:18:29;;;;;;;31.20;13.60;;;;;;;;;;5129743;28;20297;-59
2024/03/20 06:20:55;;;;;;;29.08;13.65;;;;;;;;;;5137959;28;20028;-60
2024/03/20 06:23:21;;;;;;;25.35;13.02;;;;;;;;;;5138077;28;20047;-59
2024/03/20 06:25:46;;;;;;;26.88;14.32;;;;;;;;;;5133458;28;20066;-59
2024/03/20 06:28:12;;;;;;;27.03;14.03;;;;;;;;;;5124294;28;20052;-59
2024/03/20 06:30:37;;;;;;;22.67;13.33;;;;;;;;;;5136587;28;20032;-58
2024/03/20 06:33:03;;;;;;;27.52;13.40;;;;;;;;;;5137890;28;20087;-59
2024/03/20 06:35:28;;;;;;;37.92;13.82;;;;;;;;;;5136081;28;20067;-60
2024/03/20 06:37:54;;;;;;;28.00;13.77;;;;;;;;;;5135864;28;20030;-59
2024/03/20 06:40:19;;;;;;;23.40;13.15;;;;;;;;;;5116892;28;20058;-59
2024/03/20 06:42:45;;;;;;;22.13;12.82;;;;;;;;;;5129499;28;20035;-58
2024/03/20 06:45:11;;;;;;;26.05;13.43;;;;;;;;;;5126781;28;20048;-60
2024/03/20 06:47:36;;;;;;;25.95;13.63;;;;;;;;;;5128321;28;20056;-59
2024/03/20 06:50:02;;;;;;;26.63;13.30;;;;;;;;;;5125773;28;20076;-60
2024/03/20 06:52:34;;;;;;;25.27;13.75;;;;;;;;;;5132966;28;20019;-59
2024/03/20 06:55:00;;;;;;;24.97;12.03;;;;;;;;;;5122567;28;20038;-60
2024/03/20 06:57:25;;;;;;;27.07;12.90;;;;;;;;;;5134311;28;20271;-60
2024/03/20 06:59:50;;;;;;;28.08;13.98;;;;;;;;;;5135186;28;20288;-60
2024/03/20 07:02:16;;;;;;;24.75;13.05;;;;;;;;;;5134219;28;20035;-60
2024/03/20 07:04:42;;;;;;;37.70;14.87;;;;;;;;;;5130801;28;20091;-59
2024/03/20 07:07:11;;;;;;;30.23;13.52;;;;;;;;;;5124654;28;20031;-60
2024/03/20 07:09:37;;;;;;;31.30;13.00;;;;;;;;;;5130769;28;20028;-60
2024/03/20 07:12:02;;;;;;;28.50;13.23;;;;;;;;;;5128109;28;20295;-60
2024/03/20 07:14:31;;;;;;;26.08;12.88;;;;;;;;;;5131050;28;20264;-58
2024/03/20 07:16:57;;;;;;;34.10;13.10;;;;;;;;;;5128645;28;20028;-59
2024/03/20 07:19:23;;;;;;;28.98;12.00;;;;;;;;;;5136497;28;20271;-60
2024/03/20 07:21:48;;;;;;;40.33;12.95;;;;;;;;;;5130001;28;20032;-60
2024/03/20 07:24:15;;;;;;;27.83;13.25;;;;;;;;;;5132603;28;20035;-60
2024/03/20 07:26:40;;;;;;;32.83;14.57;;;;;;;;;;5124937;28;20057;-60
2024/03/20 07:29:06;;;;;;;25.80;13.60;;;;;;;;;;5130956;28;20028;-59
2024/03/20 07:31:33;;;;;;;25.05;14.13;;;;;;;;;;5134753;28;20024;-59
2024/03/20 07:33:58;;;;;;;21.98;14.55;;;;;;;;;;5131393;28;20035;-60
2024/03/20 07:36:24;;;;;;;26.55;13.65;;;;;;;;;;5121748;28;20039;-61
2024/03/20 07:38:49;;;;;;;28.63;13.97;;;;;;;;;;5133389;28;20069;-59
2024/03/20 07:41:15;;;;;;;30.48;16.23;;;;;;;;;;5134499;28;20035;-59
2024/03/20 07:43:40;;;;;;;36.95;16.48;;;;;;;;;;5130756;28;20032;-59
2024/03/20 07:46:06;;;;;;;28.73;14.38;;;;;;;;;;5132519;28;20027;-59
2024/03/20 07:48:32;;;;;;;31.50;15.27;;;;;;;;;;5122059;28;20062;-60
2024/03/20 07:50:58;;;;;;;35.55;14.40;;;;;;;;;;5134353;28;20089;-58
2024/03/20 07:53:24;;;;;;;34.47;14.32;;;;;;;;;;5109984;28;20028;-59
2024/03/20 07:55:50;;;;;;;26.80;15.38;;;;;;;;;;5129212;28;20058;-59
2024/03/20 07:58:17;;;;;;;35.80;15.13;;;;;;;;;;5124629;28;20103;-59
2024/03/20 08:00:43;;;;;;;28.25;16.23;;;;;;;;;;5121106;28;20268;-59
2024/03/20 08:03:09;;;;;;;24.80;14.10;;;;;;;;;;5133049;28;20057;-60
2024/03/20 08:05:35;;;;;;;28.35;14.13;;;;;;;;;;5131254;28;20028;-60
2024/03/20 08:08:00;;;;;;;25.58;15.07;;;;;;;;;;5134052;28;20042;-58
2024/03/20 08:10:27;;;;;;;28.08;14.00;;;;;;;;;;5130434;28;20071;-60
2024/03/20 08:12:52;;;;;;;31.90;13.98;;;;;;;;;;5132395;28;20095;-60
2024/03/20 08:15:18;;;;;;;31.77;15.98;;;;;;;;;;5131561;28;20027;-59
2024/03/20 08:17:46;;;;;;;44.53;15.13;;;;;;;;;;5129595;28;20051;-59
2024/03/20 08:20:12;;;;;;;31.23;13.30;;;;;;;;;;5132995;28;20046;-60
2024/03/20 08:22:40;;;;;;;32.53;13.82;;;;;;;;;;5131473;28;20039;-60
2024/03/20 08:25:06;;;;;;;25.27;14.27;;;;;;;;;;5130172;28;20035;-59
2024/03/20 08:27:31;;;;;;;21.85;11.98;;;;;;;;;;5129345;28;20052;-58
2024/03/20 08:29:58;;;;;;;25.10;12.63;;;;;;;;;;5126418;28;20071;-61
2024/03/20 08:32:24;;;;;;;22.73;12.57;;;;;;;;;;5121422;28;20027;-60
2024/03/20 08:34:50;;;;;;;24.02;12.07;;;;;;;;;;5129191;28;20034;-60
2024/03/20 08:37:16;;;;;;;24.13;12.70;;;;;;;;;;5122581;28;20055;-59
2024/03/20 08:39:41;;;;;;;28.05;12.10;;;;;;;;;;5127434;28;20036;-60
2024/03/20 08:42:07;;;;;;;23.35;10.75;;;;;;;;;;5124359;28;20024;-59
2024/03/20 08:44:33;;;;;;;26.25;11.65;;;;;;;;;;5124176;28;20058;-59
2024/03/20 08:46:59;;;;;;;19.77;10.77;;;;;;;;;;5125195;28;20024;-58
2024/03/20 08:49:24;;;;;;;22.27;11.45;;;;;;;;;;5130410;28;20020;-61
2024/03/20 08:51:51;;;;;;;22.13;10.53;;;;;;;;;;5126983;28;20058;-59
2024/03/20 08:54:18;;;;;;;20.83;10.17;;;;;;;;;;5128351;28;20065;-59
2024/03/20 08:56:43;;;;;;;;;;;;;;;;;;5135197;28;20032;-59
2024/03/20 08:59:08;;;;;;;19.17;11.07;;;;;;;;;;5128620;28;19911;-60
2024/03/20 09:01:36;;;;;;;25.03;10.80;;;;;;;;;;5134247;28;20047;-59
2024/03/20 09:04:01;;;;;;;20.67;10.15;;;;;;;;;;5133854;28;20039;-60
2024/03/20 09:06:26;;;;;;;23.25;10.75;;;;;;;;;;5134499;28;20028;-60
2024/03/20 09:08:52;;;;;;;24.10;10.23;;;;;;;;;;5131885;28;20058;-59
2024/03/20 09:11:19;;;;;;;21.23;10.18;;;;;;;;;;5113990;28;20268;-60
2024/03/20 09:13:44;;;;;;;21.67;10.23;;;;;;;;;;5134581;28;20030;-60
2024/03/20 09:16:10;;;;;;;19.08;10.10;;;;;;;;;;5134622;28;20032;-59
2024/03/20 09:18:35;;;;;;;21.88;11.13;;;;;;;;;;5130193;28;20032;-60
2024/03/20 09:21:01;;;;;;;19.25;10.30;;;;;;;;;;5132577;28;20087;-60
2024/03/20 09:23:26;;;;;;;30.05;10.75;;;;;;;;;;5134035;28;20031;-59
2024/03/20 09:25:52;;;;;;;19.35;10.30;;;;;;;;;;5134398;28;20035;-59
2024/03/20 09:28:17;;;;;;;22.42;10.48;;;;;;;;;;5127634;28;20052;-60
2024/03/20 09:30:43;;;;;;;24.77;11.63;;;;;;;;;;5121758;28;20028;-58
2024/03/20 09:33:08;;;;;;;22.38;10.27;;;;;;;;;;5134512;28;20564;-59
2024/03/20 09:35:34;;;;;;;18.58;10.32;;;;;;;;;;5133960;28;20036;-59
2024/03/20 09:38:00;;;;;;;22.38;11.27;;;;;;;;;;5113498;28;20030;-60
2024/03/20 09:40:26;;;;;;;19.38;10.70;;;;;;;;;;5124223;28;20106;-58
2024/03/20 09:42:53;;;;;;;25.17;11.60;;;;;;;;;;5134818;28;20047;-59
2024/03/20 09:45:20;;;;;;;25.83;10.73;;;;;;;;;;5134223;28;20042;-59
2024/03/20 09:47:50;;;;;;;17.50;10.73;;;;;;;;;;5135794;28;20020;-59
2024/03/20 09:50:16;;;;;;;29.40;11.30;;;;;;;;;;5131263;28;20090;-59
2024/03/20 09:52:41;;;;;;;;;;;;;;;;;;5138610;28;20079;-61
2024/03/20 09:55:11;;;;;;;25.67;11.37;;;;;;;;;;5137107;28;19911;-59
2024/03/20 09:57:40;;;;;;;21.80;11.80;;;;;;;;;;5134007;28;20047;-59
2024/03/20 10:00:08;;;;;;;21.67;10.60;;;;;;;;;;5118271;28;20024;-60
2024/03/20 10:02:34;;;;;;;21.70;10.90;;;;;;;;;;5137759;28;20023;-60
2024/03/20 10:04:59;;;;;;;;;;;;;;;;;;5129797;28;20040;-59
2024/03/20 10:07:26;;;;;;;20.70;11.03;;;;;;;;;;5127246;28;19919;-59
2024/03/20 10:09:51;;;;;;;22.30;11.35;;;;;;;;;;5134469;28;20032;-59
2024/03/20 10:12:16;;;;;;;;;;;;;;;;;;5135780;28;20092;-59
2024/03/20 10:14:42;;;;;;;18.20;11.30;;;;;;;;;;5136443;28;19914;-59
2024/03/20 10:17:11;;;;;;;16.60;10.57;;;;;;;;;;5135147;28;20083;-59
2024/03/20 10:19:37;;;;;;;20.17;10.98;;;;;;;;;;5133316;28;20034;-60
2024/03/20 10:22:03;;;;;;;18.92;10.90;;;;;;;;;;5127991;28;20038;-59
2024/03/20 10:24:31;;;;;;;23.35;11.13;;;;;;;;;;5133002;28;20035;-62
2024/03/20 10:26:57;;;;;;;16.38;10.98;;;;;;;;;;5135067;28;20095;-59
2024/03/20 10:29:22;;;;;;;;;;;;;;;;;;5137836;28;20043;-60
2024/03/20 10:31:49;;;;;;;20.60;10.96;;;;;;;;;;5127725;28;19904;-59
2024/03/20 10:34:16;;;;;;;19.48;11.32;;;;;;;;;;5135160;28;20047;-59
2024/03/20 10:36:42;;;;;;;18.48;11.35;;;;;;;;;;5128331;28;20070;-59
2024/03/20 10:39:17;;;;;;;17.40;11.55;;;;;;;;;;5131275;28;20046;-60
2024/03/20 10:41:43;;;;;;;17.90;11.65;;;;;;;;;;5136905;28;20122;-59
2024/03/20 10:44:13;;;;;;;23.27;11.32;;;;;;;;;;5134646;28;20031;-61
2024/03/20 10:46:39;;;;;;;20.45;11.65;;;;;;;;;;5136734;28;20019;-60
2024/03/20 10:49:05;;;;;;;22.45;12.80;;;;;;;;;;5129801;28;20092;-59
2024/03/20 10:51:30;;;;;;;24.02;11.23;;;;;;;;;;5135249;28;20031;-60
2024/03/20 10:53:56;;;;;;;19.30;11.70;;;;;;;;;;5135249;28;20079;-59
2024/03/20 10:56:21;;;;;;;20.77;10.98;;;;;;;;;;5119141;28;20043;-59
2024/03/20 10:58:58;;;;;;;21.05;10.68;;;;;;;;;;5129754;28;20098;-60
2024/03/20 11:01:24;;;;;;;20.50;11.38;;;;;;;;;;5136011;28;20031;-60
2024/03/20 11:03:54;;;;;;;20.95;11.20;;;;;;;;;;5135395;28;20113;-59
2024/03/20 11:06:26;;;;;;;19.02;12.45;;;;;;;;;;5131007;28;20039;-60
2024/03/20 11:08:56;;;;;;;21.85;11.73;;;;;;;;;;5135072;28;20034;-60
2024/03/20 11:11:25;;;;;;;21.83;11.95;;;;;;;;;;5104247;28;20023;-59
2024/03/20 11:13:51;;;;;;;18.90;11.52;;;;;;;;;;5136044;28;20038;-60
2024/03/20 11:16:25;;;;;;;21.48;12.45;;;;;;;;;;5131642;28;20027;-60
2024/03/20 11:18:52;;;;;;;21.48;11.23;;;;;;;;;;5132510;28;20031;-60
2024/03/20 11:21:20;;;;;;;24.25;11.38;;;;;;;;;;5132141;28;20117;-60
2024/03/20 11:23:47;;;;;;;22.48;10.45;;;;;;;;;;5114442;28;20028;-60
2024/03/20 11:26:12;;;;;;;18.38;10.55;;;;;;;;;;5136021;28;20023;-59
2024/03/20 11:28:40;;;;;;;19.45;10.73;;;;;;;;;;5134762;28;20112;-59
2024/03/20 11:31:07;;;;;;;22.17;11.35;;;;;;;;;;5130948;28;20092;-59
2024/03/20 11:33:32;;;;;;;19.48;10.85;;;;;;;;;;5130636;28;20039;-60
2024/03/20 11:35:57;;;;;;;19.58;10.85;;;;;;;;;;5128615;28;20031;-60
2024/03/20 11:38:28;;;;;;;21.38;11.20;;;;;;;;;;5133838;28;20507;-59
2024/03/20 11:41:00;;;;;;;22.00;10.60;;;;;;;;;;5135659;27;20036;-59
2024/03/20 11:43:26;;;;;;;24.23;11.27;;;;;;;;;;5132761;28;20032;-61
2024/03/20 11:45:51;;;;;;;22.15;11.73;;;;;;;;;;5131779;28;20042;-59
2024/03/20 11:48:16;;;;;;;20.27;10.60;;;;;;;;;;5132332;28;20039;-59
2024/03/20 11:50:42;;;;;;;18.98;11.25;;;;;;;;;;5128138;28;20020;-59
2024/03/20 11:53:09;;;;;;;19.27;10.80;;;;;;;;;;5115159;28;20038;-60
2024/03/20 11:55:35;;;;;;;26.60;11.93;;;;;;;;;;5131849;28;20011;-59
2024/03/20 11:58:03;;;;;;;18.10;10.10;;;;;;;;;;5134727;28;20023;-60
2024/03/20 12:00:31;;;;;;;19.35;9.57;;;;;;;;;;5133023;28;20036;-60
2024/03/20 12:02:57;;;;;;;20.10;10.25;;;;;;;;;;5135835;28;20031;-60
2024/03/20 12:05:26;;;;;;;16.55;8.48;;;;;;;;;;5130691;28;20036;-59
2024/03/20 12:07:56;;;;;;;16.20;9.63;;;;;;;;;;5135831;28;20087;-60
2024/03/20 12:10:36;;;;;;;22.23;9.55;;;;;;;;;;5129060;28;20031;-59
2024/03/20 12:13:01;;;;;;;15.73;9.65;;;;;;;;;;5130769;28;20452;-59
2024/03/20 12:15:27;;;;;;;19.35;10.45;;;;;;;;;;5134567;28;20043;-60
2024/03/20 12:17:56;;;;;;;15.07;8.98;;;;;;;;;;5129281;28;20031;-59
2024/03/20 12:20:23;;;;;;;17.40;8.82;;;;;;;;;;5134066;28;20043;-60
2024/03/20 12:22:48;;;;;;;20.75;8.68;;;;;;;;;;5132135;28;20049;-59
2024/03/20 12:25:13;;;;;;;17.23;7.78;;;;;;;;;;5131366;28;20059;-60
2024/03/20 12:27:39;;;;;;;14.13;6.60;;;;;;;;;;5117760;28;20057;-59
2024/03/20 12:30:06;;;;;;;13.98;5.68;;;;;;;;;;5130199;28;20052;-59
2024/03/20 12:32:32;;;;;;;12.82;6.45;;;;;;;;;;5129170;28;20016;-59
2024/03/20 12:34:59;;;;;;;18.05;7.78;;;;;;;;;;5116853;28;20035;-60
2024/03/20 12:37:26;;;;;;;16.55;7.15;;;;;;;;;;5131146;28;20019;-59
2024/03/20 12:39:52;;;;;;;16.33;7.30;;;;;;;;;;5130007;28;20028;-59
2024/03/20 12:42:17;;;;;;;14.80;7.47;;;;;;;;;;5133198;28;20099;-60
2024/03/20 12:44:42;;;;;;;14.30;6.75;;;;;;;;;;5131323;28;20039;-60
2024/03/20 12:47:08;;;;;;;10.90;6.18;;;;;;;;;;5133638;28;20479;-60
2024/03/20 12:49:34;;;;;;;11.40;6.05;;;;;;;;;;5132352;28;20027;-60
2024/03/20 12:51:59;;;;;;;18.10;9.38;;;;;;;;;;5126125;28;20046;-59
2024/03/20 12:54:26;;;;;;;15.55;8.50;;;;;;;;;;5126064;28;20091;-60
2024/03/20 12:56:52;;;;;;;17.40;9.68;;;;;;;;;;5129460;28;20055;-59
2024/03/20 12:59:19;;;;;;;14.85;8.68;;;;;;;;;;5127790;28;20062;-60
2024/03/20 13:01:44;;;;;;;12.63;8.15;;;;;;;;;;5134355;28;20044;-60
2024/03/20 13:04:10;;;;;;;16.23;8.85;;;;;;;;;;5116948;28;20039;-59
2024/03/20 13:06:36;;;;;;;14.75;8.38;;;;;;;;;;5134444;28;20092;-60
2024/03/20 13:09:05;;;;;;;15.95;8.88;;;;;;;;;;5132840;28;20024;-59
2024/03/20 13:11:31;;;;;;;25.38;8.88;;;;;;;;;;5131625;28;20020;-60
2024/03/20 13:13:57;;;;;;;13.50;8.18;;;;;;;;;;5134677;28;20081;-59
2024/03/20 13:16:22;;;;;;;12.82;7.28;;;;;;;;;;5127833;28;20024;-60
2024/03/20 13:18:53;;;;;;;22.48;8.30;;;;;;;;;;5133361;28;20046;-60
2024/03/20 13:21:29;;;;;;;17.45;8.68;;;;;;;;;;5134947;28;20039;-60
2024/03/20 13:24:05;;;;;;;17.00;7.88;;;;;;;;;;5138714;28;20027;-62
2024/03/20 13:26:34;;;;;;;15.60;8.05;;;;;;;;;;5131408;28;20053;-59
2024/03/20 13:28:59;;;;;;;16.08;8.60;;;;;;;;;;5136356;28;20028;-60
2024/03/20 13:31:27;;;;;;;13.35;6.97;;;;;;;;;;5133148;28;20031;-60
2024/03/20 13:33:53;;;;;;;15.52;6.93;;;;;;;;;;5136975;28;20027;-59
2024/03/20 13:36:19;;;;;;;19.42;9.18;;;;;;;;;;5131807;28;20035;-60
2024/03/20 13:38:56;;;;;;;12.60;7.03;;;;;;;;;;5137013;28;20023;-60
2024/03/20 13:44:01;;;;;;;15.70;7.15;;;;;;;;;;5135430;28;20091;-60
2024/03/20 13:46:27;;;;;;;13.88;7.63;;;;;;;;;;5127308;28;20039;-59
2024/03/20 13:48:53;;;;;;;17.23;7.65;;;;;;;;;;5123482;28;20030;-60
2024/03/20 13:51:19;;;;;;;14.98;7.80;;;;;;;;;;5112064;28;20031;-61
2024/03/20 13:53:45;;;;;;;12.40;7.35;;;;;;;;;;5135695;28;20019;-60
2024/03/20 13:56:12;;;;;;;14.38;7.45;;;;;;;;;;5135564;28;20057;-60
2024/03/20 13:58:37;;;;;;;14.88;7.13;;;;;;;;;;5137580;28;20075;-61
2024/03/20 14:01:04;;;;;;;10.98;6.85;;;;;;;;;;5137677;28;20055;-60
2024/03/20 14:03:32;;;;;;;21.17;7.47;;;;;;;;;;5114877;28;20069;-59
2024/03/20 14:05:57;;;;;;;13.45;7.88;;;;;;;;;;5124268;28;20634;-59
2024/03/20 14:08:22;;;;;;;18.63;8.05;;;;;;;;;;5137963;28;20043;-60
2024/03/20 14:10:49;;;;;;;23.02;11.25;;;;;;;;;;5135116;28;20039;-60
2024/03/20 14:13:15;;;;;;;17.42;7.60;;;;;;;;;;5133864;28;20062;-59
2024/03/20 14:15:41;;;;;;;17.33;8.68;;;;;;;;;;5132668;28;20024;-60
2024/03/20 14:18:07;;;;;;;14.65;8.70;;;;;;;;;;5134931;28;20019;-60
2024/03/20 14:20:33;;;;;;;17.65;9.02;;;;;;;;;;5135848;28;20023;-59